Time;durP1;ratioP1;P1;durP2;ratioP2;P2;SDS_P1;SDS_P2;PMS_P1;PMS_P2;Temp;Humidity;BMP_temperature;BMP_pressure;BME280_temperature;BME280_humidity;BME280_pressure;Samples;Min_cycle;Max_cycle;Signal;HPM_P1;HPM_P2
2024/04/01 00:01:56;;;;;;;34.55;14.55;;;;;;;;;;5041279;28;20021;-73
2024/04/01 00:04:22;;;;;;;36.00;15.70;;;;;;;;;;5039567;28;20509;-73
2024/04/01 00:06:47;;;;;;;34.50;14.45;;;;;;;;;;5041361;28;20436;-73
2024/04/01 00:09:12;;;;;;;38.28;13.10;;;;;;;;;;5044616;28;20022;-74
2024/04/01 00:11:37;;;;;;;30.77;13.52;;;;;;;;;;5038617;28;20036;-73
2024/04/01 00:14:02;;;;;;;42.08;13.88;;;;;;;;;;5041436;28;20025;-73
2024/04/01 00:16:28;;;;;;;47.10;18.92;;;;;;;;;;5040016;28;20521;-73
2024/04/01 00:18:53;;;;;;;37.72;14.27;;;;;;;;;;5040623;28;20508;-73
2024/04/01 00:21:18;;;;;;;36.33;15.30;;;;;;;;;;5039838;28;20029;-73
2024/04/01 00:23:43;;;;;;;40.17;15.23;;;;;;;;;;5040522;28;20048;-73
2024/04/01 00:26:09;;;;;;;29.48;14.75;;;;;;;;;;5038379;28;20025;-73
2024/04/01 00:28:34;;;;;;;43.67;14.23;;;;;;;;;;5041770;28;20041;-73
2024/04/01 00:31:00;;;;;;;37.35;14.32;;;;;;;;;;5042235;28;20115;-72
2024/04/01 00:33:25;;;;;;;37.05;16.33;;;;;;;;;;5040014;28;20030;-73
2024/04/01 00:35:50;;;;;;;42.05;14.52;;;;;;;;;;5040093;28;20037;-72
2024/04/01 00:38:15;;;;;;;41.00;14.90;;;;;;;;;;5040508;28;20036;-73
2024/04/01 00:40:40;;;;;;;32.50;13.68;;;;;;;;;;5040360;28;20036;-73
2024/04/01 00:43:06;;;;;;;29.42;13.40;;;;;;;;;;5039746;28;20032;-73
2024/04/01 00:45:32;;;;;;;38.97;16.00;;;;;;;;;;5040999;28;20029;-73
2024/04/01 00:47:59;;;;;;;41.80;14.85;;;;;;;;;;5040824;28;20166;-73
2024/04/01 00:50:26;;;;;;;40.15;13.38;;;;;;;;;;5040855;28;20460;-73
2024/04/01 00:52:51;;;;;;;32.85;13.20;;;;;;;;;;5038174;28;20036;-73
2024/04/01 00:55:16;;;;;;;38.60;14.55;;;;;;;;;;5039035;28;20021;-73
2024/04/01 00:57:42;;;;;;;29.30;13.32;;;;;;;;;;5042653;28;20028;-73
2024/04/01 01:00:07;;;;;;;42.75;15.63;;;;;;;;;;5044649;28;20037;-73
2024/04/01 01:02:32;;;;;;;30.15;12.20;;;;;;;;;;5044967;28;20087;-73
2024/04/01 01:04:58;;;;;;;27.77;10.52;;;;;;;;;;5045753;28;20116;-73
2024/04/01 01:07:24;;;;;;;36.22;12.77;;;;;;;;;;5042243;28;20029;-73
2024/04/01 01:09:49;;;;;;;30.90;12.35;;;;;;;;;;5045380;28;20029;-73
2024/04/01 01:12:15;;;;;;;33.35;13.45;;;;;;;;;;5041926;28;20474;-73
2024/04/01 01:14:40;;;;;;;27.40;12.27;;;;;;;;;;5032218;28;20025;-73
2024/04/01 01:17:05;;;;;;;31.67;12.50;;;;;;;;;;5044686;28;20030;-73
2024/04/01 01:19:30;;;;;;;37.08;13.90;;;;;;;;;;5041680;28;20021;-73
2024/04/01 01:22:05;;;;;;;30.98;12.75;;;;;;;;;;5045164;28;20024;-73
2024/04/01 01:24:32;;;;;;;33.92;14.15;;;;;;;;;;5042489;28;20064;-73
2024/04/01 01:26:57;;;;;;;30.08;12.65;;;;;;;;;;5043857;28;20025;-73
2024/04/01 01:29:22;;;;;;;31.45;13.77;;;;;;;;;;5042940;28;20030;-73
2024/04/01 01:31:48;;;;;;;31.38;12.95;;;;;;;;;;5043606;28;20060;-73
2024/04/01 01:34:13;;;;;;;30.38;13.40;;;;;;;;;;5043041;28;20036;-73
2024/04/01 01:36:38;;;;;;;34.50;14.38;;;;;;;;;;5043054;28;20033;-73
2024/04/01 01:39:05;;;;;;;39.80;13.88;;;;;;;;;;5044338;28;20115;-73
2024/04/01 01:41:30;;;;;;;36.80;12.18;;;;;;;;;;5046666;28;20040;-73
2024/04/01 01:43:56;;;;;;;37.45;15.57;;;;;;;;;;5043538;28;20029;-73
2024/04/01 01:46:21;;;;;;;33.50;12.68;;;;;;;;;;5043296;28;20109;-73
2024/04/01 01:48:46;;;;;;;28.98;12.57;;;;;;;;;;5044973;28;20026;-73
2024/04/01 01:51:11;;;;;;;30.05;14.15;;;;;;;;;;5042549;28;20043;-73
2024/04/01 01:53:37;;;;;;;38.55;15.30;;;;;;;;;;5043206;28;20456;-73
2024/04/01 01:56:02;;;;;;;43.13;14.60;;;;;;;;;;5027905;28;20409;-73
2024/04/01 01:58:27;;;;;;;30.10;12.98;;;;;;;;;;5027728;28;20446;-73
2024/04/01 02:00:52;;;;;;;33.58;13.05;;;;;;;;;;5044554;28;20032;-73
2024/04/01 02:03:17;;;;;;;34.60;14.05;;;;;;;;;;5042002;28;20104;-73
2024/04/01 02:05:43;;;;;;;34.95;14.02;;;;;;;;;;5043365;28;20036;-73
2024/04/01 02:08:08;;;;;;;33.58;13.23;;;;;;;;;;5043946;28;20037;-73
2024/04/01 02:10:35;;;;;;;33.95;13.90;;;;;;;;;;5043365;28;20021;-73
2024/04/01 02:13:02;;;;;;;51.25;17.23;;;;;;;;;;5045161;28;20035;-73
2024/04/01 02:15:27;;;;;;;34.30;13.25;;;;;;;;;;5030649;28;20472;-73
2024/04/01 02:17:53;;;;;;;36.92;12.27;;;;;;;;;;5041104;28;20041;-73
2024/04/01 02:20:19;;;;;;;36.60;12.35;;;;;;;;;;5041254;28;20030;-73
2024/04/01 02:22:44;;;;;;;36.83;13.00;;;;;;;;;;5043795;28;20083;-73
2024/04/01 02:25:11;;;;;;;43.17;13.60;;;;;;;;;;5040494;28;20068;-73
2024/04/01 02:27:37;;;;;;;47.95;16.70;;;;;;;;;;5043557;28;20489;-73
2024/04/01 02:30:02;;;;;;;34.80;14.02;;;;;;;;;;5028827;28;20039;-73
2024/04/01 02:32:27;;;;;;;34.80;13.55;;;;;;;;;;5040561;28;20037;-73
2024/04/01 02:34:52;;;;;;;25.80;12.15;;;;;;;;;;5046236;28;20119;-73
2024/04/01 02:37:18;;;;;;;24.15;11.48;;;;;;;;;;5044264;28;20097;-73
2024/04/01 02:39:43;;;;;;;31.88;12.65;;;;;;;;;;5043741;28;20082;-73
2024/04/01 02:42:08;;;;;;;31.88;11.68;;;;;;;;;;5040311;28;20034;-73
2024/04/01 02:44:33;;;;;;;36.50;13.93;;;;;;;;;;5039913;28;20067;-73
2024/04/01 02:46:59;;;;;;;33.13;13.18;;;;;;;;;;5043378;28;20500;-73
2024/04/01 02:49:24;;;;;;;41.15;15.13;;;;;;;;;;5044078;28;20552;-73
2024/04/01 02:51:49;;;;;;;39.78;15.70;;;;;;;;;;5029979;28;20024;-73
2024/04/01 02:54:15;;;;;;;33.90;12.75;;;;;;;;;;5042800;28;20026;-73
2024/04/01 02:56:40;;;;;;;33.55;12.27;;;;;;;;;;5043055;28;20051;-73
2024/04/01 02:59:09;;;;;;;34.05;11.73;;;;;;;;;;5039744;28;20494;-73
2024/04/01 03:01:39;;;;;;;27.63;12.35;;;;;;;;;;5041128;28;20025;-73
2024/04/01 03:04:04;;;;;;;29.83;12.25;;;;;;;;;;5041310;28;20039;-73
2024/04/01 03:06:30;;;;;;;27.38;12.75;;;;;;;;;;5041766;28;20449;-73
2024/04/01 03:08:55;;;;;;;35.08;12.52;;;;;;;;;;5045020;28;20577;-73
2024/04/01 03:11:21;;;;;;;27.45;11.48;;;;;;;;;;5040493;28;20029;-73
2024/04/01 03:13:48;;;;;;;41.33;13.35;;;;;;;;;;5041700;28;20371;-73
2024/04/01 03:16:13;;;;;;;31.50;13.40;;;;;;;;;;5040549;28;20041;-73
2024/04/01 03:18:38;;;;;;;34.58;12.15;;;;;;;;;;5042181;28;20028;-73
2024/04/01 03:21:03;;;;;;;39.97;13.07;;;;;;;;;;5042369;28;20032;-73
2024/04/01 03:23:28;;;;;;;35.00;12.52;;;;;;;;;;5050492;28;20485;-73
2024/04/01 03:25:54;;;;;;;34.05;14.35;;;;;;;;;;5039518;28;20031;-73
2024/04/01 03:28:19;;;;;;;30.15;11.73;;;;;;;;;;5040827;28;20029;-73
2024/04/01 03:30:45;;;;;;;32.88;14.00;;;;;;;;;;5032285;28;20036;-73
2024/04/01 03:33:12;;;;;;;36.17;12.00;;;;;;;;;;5043714;28;20379;-73
2024/04/01 03:35:38;;;;;;;38.08;12.48;;;;;;;;;;5044714;28;20033;-73
2024/04/01 03:38:03;;;;;;;32.88;11.90;;;;;;;;;;5045191;28;20375;-73
2024/04/01 03:40:28;;;;;;;43.28;13.40;;;;;;;;;;5038800;28;20025;-73
2024/04/01 03:42:54;;;;;;;33.38;13.35;;;;;;;;;;5042402;28;20513;-73
2024/04/01 03:45:19;;;;;;;37.72;11.63;;;;;;;;;;5038940;28;20486;-73
2024/04/01 03:47:44;;;;;;;37.05;13.88;;;;;;;;;;5045365;28;20031;-73
2024/04/01 03:50:11;;;;;;;31.08;10.55;;;;;;;;;;5043636;28;20090;-73
2024/04/01 03:52:37;;;;;;;35.92;11.13;;;;;;;;;;5028732;28;20041;-73
2024/04/01 03:55:02;;;;;;;39.60;12.65;;;;;;;;;;5042175;28;20404;-73
2024/04/01 03:57:27;;;;;;;35.75;12.10;;;;;;;;;;5042705;28;20579;-73
2024/04/01 03:59:52;;;;;;;31.67;11.00;;;;;;;;;;5029056;28;20410;-73
2024/04/01 04:02:17;;;;;;;29.83;11.00;;;;;;;;;;5040806;28;20116;-73
2024/04/01 04:04:43;;;;;;;33.92;11.77;;;;;;;;;;5041630;28;20024;-73
2024/04/01 04:07:08;;;;;;;33.03;11.60;;;;;;;;;;5039500;28;20029;-73
2024/04/01 04:09:33;;;;;;;29.80;11.05;;;;;;;;;;5039486;28;20410;-73
2024/04/01 04:11:58;;;;;;;32.30;11.30;;;;;;;;;;5041701;28;20021;-73
2024/04/01 04:14:23;;;;;;;35.22;9.82;;;;;;;;;;5039049;28;20452;-73
2024/04/01 04:16:49;;;;;;;30.48;10.82;;;;;;;;;;5043300;28;20039;-73
2024/04/01 04:19:14;;;;;;;37.20;10.13;;;;;;;;;;5039180;28;20056;-73
2024/04/01 04:21:40;;;;;;;28.02;11.38;;;;;;;;;;5042327;28;20029;-73
2024/04/01 04:24:05;;;;;;;27.92;10.48;;;;;;;;;;5041087;28;20028;-73
2024/04/01 04:26:30;;;;;;;33.50;10.10;;;;;;;;;;5042010;28;20031;-73
2024/04/01 04:28:55;;;;;;;31.83;9.85;;;;;;;;;;5041050;28;20117;-73
2024/04/01 04:31:21;;;;;;;39.35;8.70;;;;;;;;;;5042286;28;20057;-73
2024/04/01 04:33:47;;;;;;;35.92;9.70;;;;;;;;;;5044200;28;20108;-73
2024/04/01 04:36:12;;;;;;;39.90;10.48;;;;;;;;;;5042203;28;20044;-73
2024/04/01 04:38:38;;;;;;;32.45;9.68;;;;;;;;;;5044720;28;20033;-73
2024/04/01 04:41:04;;;;;;;41.30;10.50;;;;;;;;;;5044632;28;20049;-73
2024/04/01 04:43:30;;;;;;;26.75;10.20;;;;;;;;;;5048873;28;20024;-73
2024/04/01 04:45:56;;;;;;;33.05;10.43;;;;;;;;;;5044290;28;20033;-73
2024/04/01 04:48:21;;;;;;;31.35;8.90;;;;;;;;;;5042141;28;20030;-73
2024/04/01 04:50:47;;;;;;;33.38;8.93;;;;;;;;;;5044414;28;20029;-73
2024/04/01 04:53:12;;;;;;;43.20;9.48;;;;;;;;;;5043512;28;20028;-73
2024/04/01 04:55:39;;;;;;;35.03;8.18;;;;;;;;;;5047934;28;20489;-73
2024/04/01 04:58:05;;;;;;;26.42;7.97;;;;;;;;;;5046946;28;20059;-73
2024/04/01 05:00:31;;;;;;;27.25;7.03;;;;;;;;;;5048962;28;20033;-73
2024/04/01 05:02:56;;;;;;;28.95;8.73;;;;;;;;;;5041909;28;20021;-73
2024/04/01 05:05:21;;;;;;;26.05;8.35;;;;;;;;;;5043961;28;20029;-73
2024/04/01 05:07:48;;;;;;;36.97;8.73;;;;;;;;;;5046366;28;20029;-73
2024/04/01 05:10:14;;;;;;;30.58;7.00;;;;;;;;;;5046328;28;20021;-73
2024/04/01 05:12:39;;;;;;;30.27;8.15;;;;;;;;;;5045111;28;20033;-73
2024/04/01 05:15:08;;;;;;;35.70;8.43;;;;;;;;;;5045466;28;20020;-73
2024/04/01 05:17:33;;;;;;;27.20;8.30;;;;;;;;;;5041701;28;20030;-73
2024/04/01 05:19:58;;;;;;;29.75;7.30;;;;;;;;;;5045615;28;20116;-73
2024/04/01 05:22:25;;;;;;;22.85;7.85;;;;;;;;;;5042447;28;20124;-73
2024/04/01 05:24:50;;;;;;;25.90;7.00;;;;;;;;;;5044949;28;20482;-73
2024/04/01 05:27:15;;;;;;;30.63;9.30;;;;;;;;;;5044671;28;20117;-73
2024/04/01 05:29:40;;;;;;;31.25;7.85;;;;;;;;;;5046547;28;20036;-73
2024/04/01 05:32:06;;;;;;;25.45;6.63;;;;;;;;;;5041532;28;20112;-73
2024/04/01 05:34:37;;;;;;;29.38;7.28;;;;;;;;;;5041540;28;20033;-73
2024/04/01 05:37:02;;;;;;;25.52;8.43;;;;;;;;;;5045999;28;20468;-73
2024/04/01 05:39:27;;;;;;;25.23;6.20;;;;;;;;;;5043343;28;20133;-73
2024/04/01 05:41:53;;;;;;;24.75;7.07;;;;;;;;;;5043467;28;20032;-73
2024/04/01 05:44:18;;;;;;;31.60;7.78;;;;;;;;;;5042240;28;20033;-73
2024/04/01 05:46:43;;;;;;;28.55;8.23;;;;;;;;;;5044578;28;20379;-73
2024/04/01 05:49:08;;;;;;;34.05;7.18;;;;;;;;;;5044789;28;20455;-73
2024/04/01 05:51:34;;;;;;;28.48;6.88;;;;;;;;;;5042751;28;20029;-73
2024/04/01 05:53:59;;;;;;;26.58;7.15;;;;;;;;;;5043025;28;20040;-74
2024/04/01 05:56:24;;;;;;;26.35;6.35;;;;;;;;;;5046299;28;20033;-74
2024/04/01 05:58:49;;;;;;;25.15;7.15;;;;;;;;;;5044740;28;20030;-73
2024/04/01 06:01:14;;;;;;;20.67;6.45;;;;;;;;;;5042604;28;20032;-73
2024/04/01 06:03:40;;;;;;;25.95;6.28;;;;;;;;;;5043026;28;20367;-73
2024/04/01 06:06:05;;;;;;;28.73;6.18;;;;;;;;;;5044509;28;20053;-73
2024/04/01 06:08:30;;;;;;;20.33;6.10;;;;;;;;;;5045923;28;20175;-73
2024/04/01 06:10:55;;;;;;;31.80;6.78;;;;;;;;;;5042437;28;20107;-73
2024/04/01 06:13:21;;;;;;;25.88;6.93;;;;;;;;;;5040397;28;20039;-73
2024/04/01 06:15:46;;;;;;;25.50;6.03;;;;;;;;;;5043180;28;20474;-73
2024/04/01 06:18:11;;;;;;;30.08;7.03;;;;;;;;;;5042318;28;20036;-73
2024/04/01 06:20:37;;;;;;;23.95;6.22;;;;;;;;;;5045119;28;20037;-73
2024/04/01 06:23:02;;;;;;;33.08;7.82;;;;;;;;;;5041668;28;20017;-73
2024/04/01 06:25:28;;;;;;;30.02;6.75;;;;;;;;;;5040633;28;20120;-73
2024/04/01 06:27:53;;;;;;;31.40;5.70;;;;;;;;;;5044247;28;20040;-73
2024/04/01 06:30:18;;;;;;;30.98;6.35;;;;;;;;;;5042496;28;20044;-73
2024/04/01 06:32:43;;;;;;;32.00;6.00;;;;;;;;;;5043027;28;20035;-73
2024/04/01 06:35:08;;;;;;;24.02;5.45;;;;;;;;;;5041043;28;20120;-73
2024/04/01 06:37:34;;;;;;;22.83;4.90;;;;;;;;;;5049678;28;20404;-73
2024/04/01 06:40:00;;;;;;;26.15;5.10;;;;;;;;;;5040320;28;20058;-73
2024/04/01 06:42:25;;;;;;;23.60;5.50;;;;;;;;;;5041459;28;20123;-73
2024/04/01 06:44:50;;;;;;;20.23;6.35;;;;;;;;;;5043028;28;20108;-73
2024/04/01 06:47:15;;;;;;;24.50;6.03;;;;;;;;;;5026594;28;20033;-73
2024/04/01 06:49:40;;;;;;;25.98;4.75;;;;;;;;;;5025336;28;20028;-73
2024/04/01 06:52:06;;;;;;;21.23;4.50;;;;;;;;;;5040512;28;20044;-73
2024/04/01 06:54:31;;;;;;;21.23;4.85;;;;;;;;;;5042129;28;20037;-73
2024/04/01 06:56:56;;;;;;;29.67;5.15;;;;;;;;;;5043663;28;20075;-73
2024/04/01 06:59:21;;;;;;;23.35;4.55;;;;;;;;;;5043123;28;20040;-74
2024/04/01 07:01:46;;;;;;;15.52;5.15;;;;;;;;;;5043489;28;20028;-74
2024/04/01 07:04:12;;;;;;;18.65;5.15;;;;;;;;;;5039808;28;20026;-73
2024/04/01 07:06:38;;;;;;;22.38;5.95;;;;;;;;;;5046931;28;20033;-74
2024/04/01 07:09:04;;;;;;;24.67;6.28;;;;;;;;;;5045223;28;20028;-73
2024/04/01 07:11:30;;;;;;;22.60;4.97;;;;;;;;;;5039490;28;20055;-73
2024/04/01 07:13:55;;;;;;;21.73;5.22;;;;;;;;;;5043188;28;20033;-73
2024/04/01 07:16:20;;;;;;;21.02;5.32;;;;;;;;;;5042127;28;20079;-74
2024/04/01 07:18:45;;;;;;;17.60;4.57;;;;;;;;;;5046820;28;20138;-73
2024/04/01 07:21:10;;;;;;;15.70;3.65;;;;;;;;;;5039117;28;20034;-74
2024/04/01 07:23:36;;;;;;;17.10;4.25;;;;;;;;;;5040180;28;20098;-73
2024/04/01 07:26:01;;;;;;;22.98;4.75;;;;;;;;;;5043154;28;20024;-73
2024/04/01 07:28:26;;;;;;;23.83;5.60;;;;;;;;;;5040648;28;20559;-73
2024/04/01 07:30:51;;;;;;;25.20;5.28;;;;;;;;;;5042538;28;20029;-74
2024/04/01 07:33:17;;;;;;;23.83;5.25;;;;;;;;;;5039453;28;20409;-74
2024/04/01 07:35:42;;;;;;;22.42;5.53;;;;;;;;;;5029879;28;20087;-73
2024/04/01 07:38:07;;;;;;;16.17;4.90;;;;;;;;;;5044246;28;20094;-73
2024/04/01 07:40:33;;;;;;;18.48;5.28;;;;;;;;;;5039579;28;20037;-74
2024/04/01 07:42:58;;;;;;;15.95;4.28;;;;;;;;;;5041947;28;20036;-73
2024/04/01 07:45:23;;;;;;;19.30;4.47;;;;;;;;;;5039687;28;20037;-74
2024/04/01 07:47:48;;;;;;;15.85;3.67;;;;;;;;;;5045194;28;20075;-74
2024/04/01 07:50:14;;;;;;;21.33;4.70;;;;;;;;;;5041723;28;20086;-74
2024/04/01 07:52:39;;;;;;;21.23;4.90;;;;;;;;;;5039776;28;20041;-74
2024/04/01 07:55:05;;;;;;;17.90;4.60;;;;;;;;;;5043024;28;20025;-74
2024/04/01 07:57:31;;;;;;;16.45;4.20;;;;;;;;;;5042096;28;20067;-73
2024/04/01 07:59:57;;;;;;;14.48;3.70;;;;;;;;;;5041147;28;20486;-74
2024/04/01 08:02:22;;;;;;;20.70;5.32;;;;;;;;;;5039966;28;20056;-74
2024/04/01 08:04:48;;;;;;;18.15;5.20;;;;;;;;;;5038626;28;20037;-73
2024/04/01 08:07:14;;;;;;;17.60;4.43;;;;;;;;;;5042217;28;20035;-74
2024/04/01 08:09:39;;;;;;;15.38;4.00;;;;;;;;;;5027105;28;20044;-74
2024/04/01 08:12:05;;;;;;;21.60;4.90;;;;;;;;;;5040626;28;20099;-74
2024/04/01 08:14:30;;;;;;;18.27;4.20;;;;;;;;;;5040164;28;20128;-74
2024/04/01 08:16:55;;;;;;;16.88;4.35;;;;;;;;;;5044299;28;20378;-74
2024/04/01 08:19:20;;;;;;;21.05;4.35;;;;;;;;;;5038424;28;20498;-74
2024/04/01 08:21:45;;;;;;;20.45;4.25;;;;;;;;;;5040493;28;20091;-74
2024/04/01 08:24:11;;;;;;;17.45;4.00;;;;;;;;;;5043421;28;20029;-73
2024/04/01 08:26:36;;;;;;;17.98;4.68;;;;;;;;;;5043400;28;20029;-74
2024/04/01 08:29:01;;;;;;;18.95;3.90;;;;;;;;;;5039789;28;20025;-74
2024/04/01 08:31:27;;;;;;;15.45;4.03;;;;;;;;;;5025718;28;20108;-73
2024/04/01 08:33:52;;;;;;;17.38;4.65;;;;;;;;;;5040684;28;20030;-74
2024/04/01 08:36:17;;;;;;;18.85;4.00;;;;;;;;;;5042588;28;20044;-73
2024/04/01 08:38:43;;;;;;;20.02;4.38;;;;;;;;;;5024945;28;20032;-74
2024/04/01 08:41:12;;;;;;;21.17;3.78;;;;;;;;;;5041450;28;20489;-73
2024/04/01 08:43:40;;;;;;;14.57;3.20;;;;;;;;;;5038157;28;20464;-74
2024/04/01 08:46:06;;;;;;;14.57;2.95;;;;;;;;;;5038211;28;20033;-74
2024/04/01 08:48:31;;;;;;;12.32;3.00;;;;;;;;;;5039690;28;20035;-74
2024/04/01 08:51:01;;;;;;;12.30;3.17;;;;;;;;;;5039642;28;20473;-74
2024/04/01 08:53:36;;;;;;;9.80;3.25;;;;;;;;;;5039494;28;20053;-74
2024/04/01 08:56:01;;;;;;;10.68;3.50;;;;;;;;;;5042054;28;20037;-74
2024/04/01 08:58:26;;;;;;;16.02;3.70;;;;;;;;;;5039372;28;20033;-74
2024/04/01 09:00:51;;;;;;;16.10;3.78;;;;;;;;;;5040750;28;20025;-74
2024/04/01 09:03:17;;;;;;;14.32;3.00;;;;;;;;;;5039584;28;20033;-74
2024/04/01 09:05:42;;;;;;;14.10;3.63;;;;;;;;;;5040413;28;20405;-74
2024/04/01 09:08:08;;;;;;;13.00;2.95;;;;;;;;;;5042948;28;20033;-74
2024/04/01 09:10:33;;;;;;;16.20;3.60;;;;;;;;;;5027347;28;20026;-74
2024/04/01 09:12:58;;;;;;;13.60;2.58;;;;;;;;;;5037841;28;20055;-74
2024/04/01 09:15:24;;;;;;;14.07;3.78;;;;;;;;;;5043186;28;20114;-74
2024/04/01 09:17:49;;;;;;;16.17;3.35;;;;;;;;;;5041631;28;20033;-74
2024/04/01 09:20:15;;;;;;;11.57;3.17;;;;;;;;;;5042809;28;20437;-74
2024/04/01 09:22:40;;;;;;;15.85;3.03;;;;;;;;;;5044275;28;20327;-73
2024/04/01 09:25:05;;;;;;;14.65;3.35;;;;;;;;;;5025730;28;20036;-74
2024/04/01 09:27:30;;;;;;;14.45;3.88;;;;;;;;;;5045409;28;20027;-74
2024/04/01 09:29:56;;;;;;;17.17;3.10;;;;;;;;;;5044975;28;20492;-74
2024/04/01 09:32:21;;;;;;;16.60;4.40;;;;;;;;;;5042102;28;20084;-73
2024/04/01 09:34:46;;;;;;;11.25;2.75;;;;;;;;;;5044145;28;20279;-74
2024/04/01 09:37:12;;;;;;;14.80;3.53;;;;;;;;;;5048195;28;20040;-74
2024/04/01 09:39:37;;;;;;;11.07;2.88;;;;;;;;;;5044573;28;20035;-74
2024/04/01 09:42:03;;;;;;;9.45;1.98;;;;;;;;;;5043595;28;20394;-74
2024/04/01 09:44:31;;;;;;;14.50;3.03;;;;;;;;;;5041457;28;20039;-74
2024/04/01 09:46:56;;;;;;;11.07;2.45;;;;;;;;;;5046851;28;20048;-74
2024/04/01 09:49:24;;;;;;;18.13;2.63;;;;;;;;;;5041067;28;20467;-74
2024/04/01 09:51:50;;;;;;;10.48;2.50;;;;;;;;;;5044551;28;20279;-74
2024/04/01 09:54:15;;;;;;;11.18;2.45;;;;;;;;;;5040909;28;20071;-74
2024/04/01 09:56:58;;;;;;;15.05;2.30;;;;;;;;;;5042559;28;20075;-74
2024/04/01 10:00:00;;;;;;;11.80;2.35;;;;;;;;;;5041609;28;20029;-74
2024/04/01 10:02:34;;;;;;;10.00;2.53;;;;;;;;;;4994515;28;20034;-74
2024/04/01 10:05:05;;;;;;;10.18;2.20;;;;;;;;;;5036882;28;20378;-74
2024/04/01 10:07:49;;;;;;;11.90;1.77;;;;;;;;;;5050117;28;20128;-74
2024/04/01 10:10:21;;;;;;;7.07;1.63;;;;;;;;;;5042765;28;20025;-74
2024/04/01 10:13:05;;;;;;;11.88;2.08;;;;;;;;;;5042369;28;20053;-74
2024/04/01 10:15:36;;;;;;;11.55;2.13;;;;;;;;;;5041260;28;20108;-74
2024/04/01 10:18:10;;;;;;;11.80;2.17;;;;;;;;;;5045417;28;20163;-74
2024/04/01 10:20:54;;;;;;;9.55;1.98;;;;;;;;;;5043272;28;20036;-74
2024/04/01 10:23:38;;;;;;;16.00;2.05;;;;;;;;;;5040363;28;20036;-74
2024/04/01 10:26:06;;;;;;;10.60;2.75;;;;;;;;;;5044973;28;20079;-74
2024/04/01 10:28:57;;;;;;;10.77;2.05;;;;;;;;;;5040588;28;20520;-74
2024/04/01 10:31:42;;;;;;;11.65;3.10;;;;;;;;;;5012254;28;20057;-74
2024/04/01 10:34:19;;;;;;;11.68;2.15;;;;;;;;;;5041394;28;20029;-74
2024/04/01 10:36:50;;;;;;;16.15;2.90;;;;;;;;;;5046663;28;20092;-74
2024/04/01 10:39:41;;;;;;;7.30;2.10;;;;;;;;;;5046120;28;20029;-74
2024/04/01 10:42:25;;;;;;;14.65;2.28;;;;;;;;;;5041477;28;20024;-74
2024/04/01 10:45:05;;;;;;;14.27;2.70;;;;;;;;;;5043462;28;20032;-74
2024/04/01 10:47:33;;;;;;;10.82;2.42;;;;;;;;;;5045079;28;20033;-74
2024/04/01 10:50:04;;;;;;;13.40;2.55;;;;;;;;;;5041799;28;20029;-74
2024/04/01 10:52:44;;;;;;;9.32;2.22;;;;;;;;;;5040037;28;20029;-74
2024/04/01 10:55:28;;;;;;;8.65;1.65;;;;;;;;;;5042306;28;20067;-74
2024/04/01 10:58:12;;;;;;;13.45;2.15;;;;;;;;;;5045302;28;20385;-74
2024/04/01 11:00:57;;;;;;;15.98;2.92;;;;;;;;;;5042118;28;20638;-74
2024/04/01 11:03:46;;;;;;;9.55;2.22;;;;;;;;;;5044220;28;20406;-74
2024/04/01 11:06:17;;;;;;;17.33;2.85;;;;;;;;;;5040285;28;20174;-74
2024/04/01 11:08:56;;;;;;;11.75;2.05;;;;;;;;;;5043335;28;20025;-74
2024/04/01 11:11:48;;;;;;;14.25;2.67;;;;;;;;;;5040713;28;20044;-74
2024/04/01 11:14:14;;;;;;;8.45;1.98;;;;;;;;;;5041970;28;20037;-74
2024/04/01 11:16:42;;;;;;;10.18;2.25;;;;;;;;;;5045149;28;20025;-74
2024/04/01 11:19:26;;;;;;;11.27;2.30;;;;;;;;;;5039125;28;20462;-74
2024/04/01 11:21:52;;;;;;;10.73;2.25;;;;;;;;;;5040806;28;20120;-74
2024/04/01 11:24:25;;;;;;;9.90;2.53;;;;;;;;;;5044503;28;20035;-74
2024/04/01 11:27:10;;;;;;;7.63;2.03;;;;;;;;;;5046275;28;20028;-74
2024/04/01 11:30:03;;;;;;;10.98;2.20;;;;;;;;;;5041505;28;20083;-74
2024/04/01 11:32:32;;;;;;;12.32;2.22;;;;;;;;;;5036903;28;20456;-74
2024/04/01 11:35:03;;;;;;;8.27;2.40;;;;;;;;;;5041697;28;20036;-74
2024/04/01 11:37:39;;;;;;;14.25;3.15;;;;;;;;;;5042373;28;20485;-74
2024/04/01 11:40:09;;;;;;;10.70;2.20;;;;;;;;;;5042327;28;20028;-74
2024/04/01 11:42:35;;;;;;;9.80;2.53;;;;;;;;;;5040587;28;20044;-74
2024/04/01 11:45:06;;;;;;;12.02;3.33;;;;;;;;;;5023367;28;20032;-74
2024/04/01 11:47:31;;;;;;;15.55;3.42;;;;;;;;;;5039181;28;20025;-74
2024/04/01 11:49:56;;;;;;;10.95;2.53;;;;;;;;;;5041779;28;20029;-74
2024/04/01 11:52:24;;;;;;;9.67;2.43;;;;;;;;;;5039653;28;20041;-74
2024/04/01 11:54:49;;;;;;;10.02;3.10;;;;;;;;;;5045569;28;20767;-74
2024/04/01 11:57:23;;;;;;;12.13;2.67;;;;;;;;;;5041703;28;20035;-74
2024/04/01 11:59:48;;;;;;;12.80;3.28;;;;;;;;;;5039544;28;20117;-74
2024/04/01 12:02:14;;;;;;;12.20;2.13;;;;;;;;;;5041716;28;20103;-74
2024/04/01 12:04:39;;;;;;;14.77;2.88;;;;;;;;;;5024524;28;20040;-74
2024/04/01 12:07:05;;;;;;;10.07;2.15;;;;;;;;;;5045889;28;20025;-74
2024/04/01 12:09:31;;;;;;;12.30;2.50;;;;;;;;;;5040897;28;20033;-74
2024/04/01 12:11:57;;;;;;;9.52;2.80;;;;;;;;;;5041181;28;20082;-74
2024/04/01 12:14:25;;;;;;;9.75;1.88;;;;;;;;;;5039565;28;20040;-74
2024/04/01 12:16:50;;;;;;;12.13;2.20;;;;;;;;;;5026625;28;20044;-74
2024/04/01 12:19:15;;;;;;;7.23;1.97;;;;;;;;;;5040538;28;20032;-74
2024/04/01 12:21:44;;;;;;;12.07;1.85;;;;;;;;;;5040271;28;20300;-74
2024/04/01 12:24:09;;;;;;;10.43;2.58;;;;;;;;;;5039762;28;20025;-74
2024/04/01 12:26:37;;;;;;;9.27;1.92;;;;;;;;;;5042093;28;20481;-74
2024/04/01 12:29:03;;;;;;;7.40;1.23;;;;;;;;;;5038402;28;20571;-74
2024/04/01 12:31:28;;;;;;;14.68;2.67;;;;;;;;;;5040378;28;20064;-74
2024/04/01 12:33:55;;;;;;;12.88;1.92;;;;;;;;;;5023581;28;20485;-74
2024/04/01 12:36:20;;;;;;;8.30;1.80;;;;;;;;;;5040458;28;20552;-74
2024/04/01 12:38:46;;;;;;;10.95;1.92;;;;;;;;;;5045158;28;20039;-74
2024/04/01 12:41:17;;;;;;;11.13;2.15;;;;;;;;;;5038450;28;20037;-74
2024/04/01 12:43:43;;;;;;;8.20;2.20;;;;;;;;;;5038677;28;20562;-74
2024/04/01 12:46:11;;;;;;;10.82;1.80;;;;;;;;;;5042285;28;20264;-74
2024/04/01 12:48:36;;;;;;;9.10;1.85;;;;;;;;;;5042126;28;20030;-74
2024/04/01 12:51:02;;;;;;;8.97;1.97;;;;;;;;;;5041014;28;20025;-74
2024/04/01 12:53:48;;;;;;;11.48;2.28;;;;;;;;;;5040167;28;20286;-74
2024/04/01 12:56:26;;;;;;;8.85;1.77;;;;;;;;;;5042446;28;20029;-74
2024/04/01 12:59:14;;;;;;;8.18;2.25;;;;;;;;;;5041995;28;20512;-74
2024/04/01 13:01:45;;;;;;;5.57;1.27;;;;;;;;;;5045026;28;20091;-74
2024/04/01 13:04:23;;;;;;;8.32;1.73;;;;;;;;;;5043811;28;20052;-74
2024/04/01 13:06:58;;;;;;;8.30;1.50;;;;;;;;;;5046912;28;20798;-74
2024/04/01 13:09:26;;;;;;;9.13;1.70;;;;;;;;;;5045588;28;20474;-74
2024/04/01 13:12:10;;;;;;;13.27;1.95;;;;;;;;;;5043463;28;20063;-73
2024/04/01 13:14:51;;;;;;;13.02;1.80;;;;;;;;;;5042678;28;20478;-74
2024/04/01 13:17:19;;;;;;;8.73;1.60;;;;;;;;;;5046202;28;20029;-74
2024/04/01 13:19:58;;;;;;;12.48;1.67;;;;;;;;;;5033787;28;20035;-74
2024/04/01 13:22:38;;;;;;;8.20;1.25;;;;;;;;;;5042426;28;20025;-74
2024/04/01 13:25:07;;;;;;;4.65;1.17;;;;;;;;;;5023961;28;20040;-74
2024/04/01 13:27:34;;;;;;;7.95;1.48;;;;;;;;;;5045681;28;20040;-74
2024/04/01 13:30:05;;;;;;;6.65;1.63;;;;;;;;;;5045332;28;20025;-74
2024/04/01 13:32:49;;;;;;;10.10;2.63;;;;;;;;;;5044292;28;20037;-74
2024/04/01 13:35:28;;;;;;;6.53;1.38;;;;;;;;;;5041746;28;20067;-74
2024/04/01 13:38:08;;;;;;;5.40;1.20;;;;;;;;;;5044968;28;20482;-74
2024/04/01 13:40:51;;;;;;;10.45;2.58;;;;;;;;;;5041847;28;20040;-74
2024/04/01 13:43:35;;;;;;;6.68;1.15;;;;;;;;;;5045969;28;20041;-74
2024/04/01 13:46:12;;;;;;;2.60;0.98;;;;;;;;;;5043457;28;20033;-74
2024/04/01 13:49:13;;;;;;;5.22;1.30;;;;;;;;;;5046387;28;20036;-74
2024/04/01 13:51:38;;;;;;;6.63;1.05;;;;;;;;;;4951899;29;20038;-74
2024/04/01 13:54:03;;;;;;;4.10;0.88;;;;;;;;;;5023817;28;20037;-74
2024/04/01 13:56:35;;;;;;;3.90;0.70;;;;;;;;;;5041595;28;20025;-74
2024/04/01 13:59:02;;;;;;;4.88;0.75;;;;;;;;;;5044492;28;20263;-74
2024/04/01 14:01:29;;;;;;;3.38;0.47;;;;;;;;;;5043432;28;20033;-74
2024/04/01 14:04:04;;;;;;;3.20;0.70;;;;;;;;;;5043668;28;20037;-74
2024/04/01 14:06:52;;;;;;;2.42;0.60;;;;;;;;;;5039769;28;20024;-74
2024/04/01 14:09:36;;;;;;;5.15;0.57;;;;;;;;;;5044992;28;20025;-73
2024/04/01 14:12:11;;;;;;;3.28;0.55;;;;;;;;;;5042451;28;20062;-74
2024/04/01 14:14:42;;;;;;;6.00;0.73;;;;;;;;;;5044481;28;20036;-74
2024/04/01 14:17:25;;;;;;;1.97;0.47;;;;;;;;;;5042397;28;20040;-74
2024/04/01 14:20:06;;;;;;;2.28;0.50;;;;;;;;;;5041781;28;20037;-74
2024/04/01 14:22:32;;;;;;;3.90;0.57;;;;;;;;;;5041209;28;20136;-74
2024/04/01 14:24:58;;;;;;;2.08;0.60;;;;;;;;;;5025797;28;20532;-74
2024/04/01 14:27:23;;;;;;;4.85;0.73;;;;;;;;;;5041004;28;20025;-74
2024/04/01 14:29:49;;;;;;;5.93;0.77;;;;;;;;;;5045406;28;20023;-74
2024/04/01 14:32:14;;;;;;;3.25;0.70;;;;;;;;;;5040497;28;20033;-74
2024/04/01 14:34:40;;;;;;;2.45;0.50;;;;;;;;;;5039968;28;20025;-74